Tiempo atmosférico en la estación meteorológica de Valsequillo, Córdoba (575 m.)



Fecha
DESCASC
Temp. máxima en grados centígrados (hora)
DESCASC
Temp. mínima en grados centígrados (hora)
DESCASC
Temp. media en grados centígrados
DESCASC
Racha de viento máxima en m/sg (hora)
DESCASC
Velocidad máxima media en intervalos de 10 minutos(hora)
DESCASC
Precipitaciones diarias en mm
DESCASC
Precipitaciones de 00:00 a 06:00 en mm
DESCASC
Precipitaciones de 06:00 a 12:00 en mm
DESCASC
Precipitaciones de 12:00 a 18:00 en mm
DESCASC
Precipitaciones de 18:00 a 24:00 en mm
DESCASC
21-02-2019 18.5 (16:00) 1.2 (07:40) 9.9 8.33 (11:10) 6.11 (11:10) 0 0 0 0 0
20-02-2019 17.1 (15:50) 3 (08:40) 10.1 5 (13:40) 2.5 (16:00) 0 0 0 0 0
19-02-2019 15.6 (14:50) 2.7 (00:40) 9.2 6.67 (19:30) 4.72 (19:20) 3.4 0 0 0 3.4
18-02-2019 16.5 (15:10) 3.3 (23:59) 9.9 7.78 (14:50) 5 (09:40) 0 0 0 0 0
17-02-2019 17 (16:40) -0.9 (-00:0) 8.1 6.94 (13:20) 4.17 (13:30) 0 0 0 0 0
16-02-2019 18.3 (15:40) 0.9 (00:00) 9.6 5.28 (12:30) 3.61 (22:10) 0 0 0 0 0
15-02-2019 16.9 (15:30) -1 (-00:0) 7.9 6.11 (14:50) 3.89 (15:00) 0 0 0 0 0
14-02-2019 17.3 (15:20) 1.4 (00:00) 9.3 8.33 (12:50) 5 (12:00) 0 0 0 0 0
13-02-2019 17.8 (16:50) 0.3 (00:00) 9 5 (15:30) 3.06 (17:50) 0 0 0 0 0
12-02-2019 16.9 (16:00) 1 (00:00) 8.9 6.11 (14:10) 3.33 (13:50) 0 0 0 0 0
11-02-2019 15.1 (16:00) 4.1 (00:00) 9.6 4.72 (01:10) 3.33 (01:10) 0.2 0.2 0 0 0
10-02-2019 14.2 (15:50) 1.6 (00:00) 7.9 8.06 (16:30) 6.11 (16:40) 0 0 0 0 0
09-02-2019 16.3 (16:00) -1 (-00:0) 7.6 5.83 (13:50) 3.33 (16:20) 0 0 0 0 0
08-02-2019 17.2 (16:00) -2.9 (-00:0) 7.2 6.39 (15:20) 3.33 (15:20) 0 0 0 0 0
07-02-2019 17.2 (16:20) 0.2 (00:00) 8.7 4.44 (12:20) 2.78 (12:20) 0 0 0 0 0
06-02-2019 18.5 (15:40) -0.8 (-00:0) 8.8 3.61 (16:50) 1.67 (16:50) 0 0 0 0 0
05-02-2019 16.7 (15:20) -2.4 (-00:0) 7.2 4.72 (15:50) 2.78 (15:50) 0 0 0 0 0
04-02-2019 13.8 (16:40) -4.8 (-00:0) 4.5 4.17 (14:30) 1.94 (13:00) 0 0 0 0 0
03-02-2019 9.7 (16:00) -3.1 (-00:0) 3.3 6.11 (16:40) 4.17 (01:50) 0 0 0 0 0
02-02-2019 9.2 (15:50) 0.6 (00:00) 4.9 15.83 (13:50) 10.83 (12:40) 0 0 0 0 0
01-02-2019 11 (03:40) 4.2 (00:00) 7.6 22.22 (16:30) 12.78 (15:00) 17.6 15.2 0.6 1.8 0
31-01-2019 13.2 (13:50) 8.6 (00:00) 10.9 15.56 (14:00) 10 (15:30) 1 0.6 0 0.2 0.2
30-01-2019 10.6 (15:00) 4.7 (00:00) 7.7 13.33 (02:50) 9.17 (02:50) 1.6 0 0 0 1.6
29-01-2019 10.3 (16:30) 3.9 (00:00) 7.1 12.5 (18:50) 8.89 (18:50) 0 0 0 0 0
28-01-2019 12.1 (16:00) 0.5 (00:00) 6.3 13.33 (13:40) 8.89 (13:40) 0 0 0 0 0
27-01-2019 11.6 (15:00) 1.1 (00:00) 6.4 11.94 (16:00) 8.06 (16:20) 0 0 0 0 0
26-01-2019 17.8 (15:50) -1.4 (-00:0) 8.2 3.06 (15:00) 1.39 (17:10) 0 0 0 0 0
25-01-2019 16.6 (16:40) 0.2 (00:00) 8.4 5.56 (13:30) 3.33 (15:50) 0 0 0 0 0
24-01-2019 15.6 (17:10) 5.5 (00:00) 10.6 11.94 (04:00) 8.61 (03:50) 0 0 0 0 0

Gráficas

Temp. máximas Temp. mínimas Temp. medias Precipitaciones Rachas de viento máximas Velocidades máximas media en intervalos de 10 minutos

Datos horarios

Fecha y hora oficial Temperatura (ºC) Velocidad del viento (km/h) Dirección del viento Racha (km/h) Dirección de racha Precipitación (mm) Presión (hPa) Tendencia (hPa) Humedad (%)
2019-02-22 23:00:00 5.4 0 Calma 5 Sudeste 0 -- -- 76
2019-02-22 22:00:00 5.7 3 Sudoeste 5 Oeste 0 -- -- 79
2019-02-22 21:00:00 7.7 0 Calma 3 Oeste 0 -- -- 70
2019-02-22 20:00:00 11 2 Oeste 6 Sudoeste 0 -- -- 58
2019-02-22 19:00:00 16.4 6 Sudoeste 12 Sudoeste 0 -- -- 35
2019-02-22 18:00:00 18.9 6 Sur 18 Sur 0 -- -- 30
2019-02-22 17:00:00 19.7 8 Sur 22 Sur 0 -- -- 29
2019-02-22 16:00:00 20 7 Sudeste 21 Sudeste 0 -- -- 30
2019-02-22 15:00:00 19.8 11 Sur 26 Sudeste 0 -- -- 30
2019-02-22 14:00:00 19.4 18 Sudeste 28 Sudeste 0 -- -- 31
2019-02-22 13:00:00 18.4 18 Sudeste 27 Sudeste 0 -- -- 33
2019-02-22 12:00:00 16.6 13 Sur 21 Sur 0 -- -- 44
2019-02-22 11:00:00 13.3 0 Calma 7 Sudeste 0 -- -- 63
2019-02-22 10:00:00 8.7 2 Este 7 Este 0 -- -- 81
2019-02-22 09:00:00 2.3 0 Calma 5 Noroeste 0 -- -- 97
2019-02-22 08:00:00 0.6 3 Oeste 5 Este 0 -- -- 93
2019-02-22 07:00:00 0.6 2 Sudeste 3 Nordeste 0 -- -- 92
2019-02-22 06:00:00 1.3 3 Sudeste 5 Sudeste 0 -- -- 91
2019-02-22 05:00:00 1.8 0 Calma 4 Sudoeste 0 -- -- 91
2019-02-22 04:00:00 2.2 4 Sudoeste 7 Sudoeste 0 -- -- 93
2019-02-22 03:00:00 3 0 Calma 6 Nordeste 0 -- -- 88
2019-02-22 02:00:00 3.5 3 Este 5 Este 0 -- -- 91
2019-02-22 01:00:00 3.5 0 Calma 3 Sudoeste 0 -- -- 90
2019-02-22 00:00:00 4.6 0 Calma 8 Sudeste 0 -- -- 82
2019-02-21 23:00:00 5.3 0 Calma 4 Sudeste 0 -- -- 82
2019-02-21 22:00:00 6.9 0 Calma 4 Sur 0 -- -- 74
2019-02-21 21:00:00 8.1 4 Oeste 6 Sudeste 0 -- -- 69
2019-02-21 20:00:00 11.7 5 Sur 9 Sur 0 -- -- 53
2019-02-21 19:00:00 14.4 8 Sudeste 14 Sur 0 -- -- 48
2019-02-21 18:00:00 17.3 9 Sur 19 Sur 0 -- -- 38
2019-02-21 17:00:00 18.4 9 Sur 21 Sur 0 -- -- 37
2019-02-21 16:00:00 18.5 12 Sudeste 22 Sur 0 -- -- 37
2019-02-21 15:00:00 18 13 Sur 24 Sudeste 0 -- -- 37
2019-02-21 14:00:00 17.2 12 Sudeste 24 Sudeste 0 -- -- 47
2019-02-21 13:00:00 16 14 Sur 21 Sudeste 0 -- -- 52
2019-02-21 12:00:00 14.3 15 Sudeste 30 Sudeste 0 -- -- 57
2019-02-21 11:00:00 12 18 Sudeste 25 Sudeste 0 -- -- 69
2019-02-21 10:00:00 7.6 0 Calma 4 Sudeste 0 -- -- 100
2019-02-21 09:00:00 1.8 0 Calma 4 Nordeste 0 -- -- 98
2019-02-21 08:00:00 1.6 0 Calma 3 Este 0 -- -- 97
2019-02-21 07:00:00 1.9 0 Calma 6 Este 0 -- -- 96
2019-02-21 06:00:00 2.5 0 Calma 5 Sudoeste 0 -- -- 96
2019-02-21 05:00:00 2.9 3 Sudeste 6 Sudeste 0 -- -- 94
2019-02-21 04:00:00 4 0 Calma 4 Sur 0 -- -- 95
2019-02-21 03:00:00 4.8 3 Sudoeste 7 Sudoeste 0 -- -- 96
2019-02-21 02:00:00 4.5 5 Sudoeste 8 Sur 0 -- -- 97
2019-02-21 01:00:00 4.5 0 Calma 5 Oeste 0 -- -- 97
2019-02-21 00:00:00 5.1 0 Calma 5 Este 0 -- -- 92
2019-02-20 23:00:00 6.1 2 Sudeste 4 Sudeste 0 -- -- 93
2019-02-20 22:00:00 6.4 0 Calma 3 Sudoeste 0 -- -- 91
2019-02-20 21:00:00 8 0 Calma 4 Este 0 -- -- 86
2019-02-20 20:00:00 10.8 0 Calma 5 Nordeste 0 -- -- 78
2019-02-20 19:00:00 13.3 5 Nordeste 7 Norte 0 -- -- 65
2019-02-20 18:00:00 14.7 3 Nordeste 10 Nordeste 0 -- -- 63
2019-02-20 17:00:00 14.7 6 Nordeste 16 Nordeste 0 -- -- 62
2019-02-20 16:00:00 16.6 9 Nordeste 17 Nordeste 0 -- -- 57
2019-02-20 15:00:00 16.3 7 Sudoeste 15 Sur 0 -- -- 59
2019-02-20 14:00:00 15.2 6 Oeste 18 Sur 0 -- -- 63
2019-02-20 13:00:00 14.2 6 Sur 14 Sur 0 -- -- 65
2019-02-20 12:00:00 12.9 8 Sudoeste 13 Sudoeste 0 -- -- 72
2019-02-20 11:00:00 11.4 5 Sur 12 Sur 0 -- -- 77
2019-02-20 10:00:00 7.8 0 Calma 3 Norte 0 -- -- 98
2019-02-20 09:00:00 3.9 2 Sur 4 Sudeste 0 -- -- 99
2019-02-20 08:00:00 3.4 3 Sudoeste 6 Este 0 -- -- 98
2019-02-20 07:00:00 4.6 2 Este 5 Sudeste 0 -- -- 98
2019-02-20 06:00:00 4.9 2 Noroeste 9 Noroeste 0 -- -- 97
2019-02-20 05:00:00 5.2 3 Este 10 Norte 0 -- -- 97
2019-02-20 04:00:00 6.2 0 Calma 9 Sudeste 0 -- -- 96
2019-02-20 03:00:00 6.8 5 Noroeste 8 Noroeste 0 -- -- 95
2019-02-20 02:00:00 7.7 0 Calma 10 Sur 0 -- -- 95
2019-02-20 01:00:00 8 0 Calma 4 Nordeste 0 -- -- 95
2019-02-20 00:00:00 8.3 0 Calma 5 Nordeste 0.2 -- -- 95
2019-02-19 23:00:00 8.4 0 Calma 12 Noroeste 0 -- -- 94
2019-02-19 22:00:00 8.6 8 Noroeste 16 Noroeste 0 -- -- 92
2019-02-19 21:00:00 8.8 9 Noroeste 16 Oeste 1 -- -- 93
2019-02-19 20:00:00 9.1 14 Oeste 24 Oeste 2.2 -- -- 90
2019-02-19 19:00:00 11.5 10 Sudoeste 21 Oeste 0 -- -- 71
2019-02-19 18:00:00 13.1 8 Sudeste 14 Sur 0 -- -- 55
2019-02-19 17:00:00 15.1 2 Nordeste 13 Norte 0 -- -- 51
2019-02-19 16:00:00 15.3 6 Norte 18 Norte 0 -- -- 50
2019-02-19 15:00:00 15.2 8 Noroeste 14 Noroeste 0 -- -- 54
2019-02-19 14:00:00 15 8 Norte 14 Norte 0 -- -- 55
2019-02-19 13:00:00 14.9 4 Nordeste 9 Nordeste 0 -- -- 61
2019-02-19 12:00:00 13.6 3 Norte 9 Norte 0 -- -- 65
2019-02-19 11:00:00 10.3 0 Calma 11 Sur 0 -- -- 76
2019-02-19 10:00:00 8.7 0 Calma 5 Sur 0 -- -- 79
2019-02-19 09:00:00 6.8 0 Calma 6 Sudoeste 0 -- -- 83
2019-02-19 08:00:00 6.1 2 Sudoeste 6 Sur 0 -- -- 85
2019-02-19 07:00:00 5.8 4 Sudoeste 8 Sudoeste 0 -- -- 87
2019-02-19 06:00:00 6.2 2 Sur 7 Sudoeste 0 -- -- 83
2019-02-19 05:00:00 6.9 0 Calma 9 Sur 0 -- -- 79
2019-02-19 04:00:00 6.9 3 Sur 6 Sur 0 -- -- 79
2019-02-19 03:00:00 5.6 2 Sur 4 Sudeste 0 -- -- 89
2019-02-19 02:00:00 4.7 0 Calma 2 Sudoeste 0 -- -- 90
2019-02-19 01:00:00 3.4 0 Calma 5 Sur 0 -- -- 89
2019-02-19 00:00:00 3.3 0 Calma 3 Oeste 0 -- -- 85
2019-02-18 23:00:00 3.7 3 Oeste 4 Oeste 0 -- -- 85
2019-02-18 22:00:00 5.4 2 Oeste 4 Este 0 -- -- 75
2019-02-18 21:00:00 7.6 0 Calma 5 Sudoeste 0 -- -- 69
2019-02-18 20:00:00 10.3 4 Sudoeste 10 Sur 0 -- -- 59
2019-02-18 19:00:00 12.8 6 Sudoeste 14 Sudoeste 0 -- -- 50
2019-02-18 18:00:00 15.1 8 Sur 16 Sudoeste 0 -- -- 41
2019-02-18 17:00:00 15.3 9 Sur 21 Sur 0 -- -- 40
2019-02-18 16:00:00 16.1 14 Sur 26 Sur 0 -- -- 36
2019-02-18 15:00:00 16.3 15 Sur 28 Sudeste 0 -- -- 35
2019-02-18 14:00:00 15.7 13 Sur 26 Sudoeste 0 -- -- 39
2019-02-18 13:00:00 15.5 13 Sur 23 Sudeste 0 -- -- 44
2019-02-18 12:00:00 13.9 14 Sur 27 Sudeste 0 -- -- 51
2019-02-18 11:00:00 12.4 11 Sudeste 27 Sur 0 -- -- 59
2019-02-18 10:00:00 9.8 17 Sur 26 Sudeste 0 -- -- 66
2019-02-18 09:00:00 6.8 10 Sur 14 Sur 0 -- -- 82
2019-02-18 08:00:00 6.1 5 Sur 15 Sur 0 -- -- 85
2019-02-18 07:00:00 6.1 9 Sudeste 16 Sudeste 0 -- -- 88
2019-02-18 06:00:00 4.6 7 Sur 10 Sur 0 -- -- 95
2019-02-18 05:00:00 4 0 Calma 7 Oeste 0 -- -- 94
2019-02-18 04:00:00 4.5 0 Calma 5 Este 0 -- -- 89
2019-02-18 03:00:00 4.8 0 Calma 3 Noroeste 0 -- -- 88
2019-02-18 02:00:00 5.3 0 Calma 3 Sudeste 0 -- -- 87
2019-02-18 01:00:00 5.6 3 Este 10 Sur 0 -- -- 86
2019-02-18 00:00:00 7.8 6 Sur 14 Sur 0 -- -- 78
2019-02-17 23:00:00 6.2 6 Sur 10 Sur 0 -- -- 86
2019-02-17 22:00:00 6.6 4 Sur 7 Sur 0 -- -- 83
2019-02-17 21:00:00 8.7 6 Sur 8 Sur 0 -- -- 74
2019-02-17 20:00:00 10.8 6 Sur 14 Sur 0 -- -- 66
2019-02-17 19:00:00 13.1 6 Sur 17 Sudeste 0 -- -- 55
2019-02-17 18:00:00 15.9 10 Sur 24 Sur 0 -- -- 44
2019-02-17 17:00:00 17 9 Sur 22 Sur 0 -- -- 42
2019-02-17 16:00:00 16.7 12 Sudeste 22 Sudeste 0 -- -- 45
2019-02-17 15:00:00 16.7 12 Sur 24 Sudeste 0 -- -- 42
2019-02-17 14:00:00 16.4 11 Sur 25 Sudeste 0 -- -- 45
2019-02-17 13:00:00 15.3 12 Sur 21 Sudeste 0 -- -- 49
2019-02-17 12:00:00 13.8 8 Sudeste 19 Sur 0 -- -- 52
2019-02-17 11:00:00 11.1 4 Este 9 Sudeste 0 -- -- 71
2019-02-17 10:00:00 5.8 3 Este 7 Este 0 -- -- 96
2019-02-17 09:00:00 -0.5 0 Calma 5 Norte 0 -- -- 96
2019-02-17 08:00:00 0.1 3 Sudeste 5 Sudeste 0 -- -- 96
2019-02-17 07:00:00 1 3 Sudeste 5 Sudeste 0 -- -- 97
2019-02-17 06:00:00 0.8 0 Calma 8 Este 0 -- -- 95
2019-02-17 05:00:00 1.6 0 Calma 8 Noroeste 0 -- -- 94
2019-02-17 04:00:00 2.9 4 Este 9 Este 0 -- -- 92
2019-02-17 03:00:00 2.4 0 Calma 10 Sudoeste 0 -- -- 94
2019-02-17 02:00:00 3.9 0 Calma 6 Nordeste 0 -- -- 87
2019-02-17 01:00:00 4.7 3 Sur 8 Sudoeste 0 -- -- 87
2019-02-17 00:00:00 6 4 Sudoeste 7 Sudoeste 0 -- -- 81
2019-02-16 23:00:00 7.6 0 Calma 19 Sudoeste 0 -- -- 76
2019-02-16 22:00:00 8.4 10 Sudoeste 16 Sudoeste 0 -- -- 73
2019-02-16 21:00:00 10.5 6 Sur 15 Sur 0 -- -- 63
2019-02-16 20:00:00 9.6 4 Sur 10 Sur 0 -- -- 71
2019-02-16 19:00:00 13.5 4 Norte 10 Nordeste 0 -- -- 59
2019-02-16 18:00:00 16.3 6 Nordeste 17 Nordeste 0 -- -- 50
2019-02-16 17:00:00 17.6 3 Nordeste 18 Este 0 -- -- 43
2019-02-16 16:00:00 18 6 Nordeste 17 Este 0 -- -- 40
2019-02-16 15:00:00 17.4 9 Nordeste 18 Nordeste 0 -- -- 44
2019-02-16 14:00:00 16.2 8 Nordeste 17 Nordeste 0 -- -- 53
2019-02-16 13:00:00 14 8 Nordeste 19 Nordeste 0 -- -- 57
2019-02-16 12:00:00 10.9 8 Nordeste 18 Nordeste 0 -- -- 69
2019-02-16 11:00:00 9.3 6 Nordeste 14 Nordeste 0 -- -- 74
2019-02-16 10:00:00 5.3 3 Este 8 Este 0 -- -- 92
2019-02-16 09:00:00 1.7 0 Calma 6 Nordeste 0 -- -- 98
2019-02-16 08:00:00 0.9 0 Calma 4 Nordeste 0 -- -- 95
2019-02-16 07:00:00 1.5 0 Calma 3 Este 0 -- -- 93
2019-02-16 06:00:00 2.1 0 Calma 5 Nordeste 0 -- -- 93
2019-02-16 05:00:00 3.3 0 Calma 4 Nordeste 0 -- -- 91
2019-02-16 04:00:00 3.6 0 Calma 3 Sudoeste 0 -- -- 92
2019-02-16 03:00:00 2.9 0 Calma 4 Este 0 -- -- 92
2019-02-16 02:00:00 3.9 0 Calma 3 Nordeste 0 -- -- 85
2019-02-16 01:00:00 4.9 0 Calma 6 Noroeste 0 -- -- 83
2019-02-16 00:00:00 5.4 2 Noroeste 5 Norte 0 -- -- 83
2019-02-15 23:00:00 4.3 2 Oeste 8 Nordeste 0 -- -- 85
2019-02-15 22:00:00 5.9 0 Calma 2 Oeste 0 -- -- 85
2019-02-15 21:00:00 7.7 0 Calma 5 Este 0 -- -- 77
2019-02-15 20:00:00 10.6 3 Este 12 Nordeste 0 -- -- 70
2019-02-15 19:00:00 12.5 8 Nordeste 14 Nordeste 0 -- -- 64
2019-02-15 18:00:00 14.8 11 Nordeste 18 Nordeste 0 -- -- 58
2019-02-15 17:00:00 16.5 9 Nordeste 18 Nordeste 0 -- -- 54
2019-02-15 16:00:00 16.6 10 Nordeste 19 Norte 0 -- -- 51
2019-02-15 15:00:00 16.2 14 Nordeste 22 Norte 0 -- -- 54
2019-02-15 14:00:00 15.1 12 Nordeste 22 Nordeste 0 -- -- 60
2019-02-15 13:00:00 14.4 9 Nordeste 15 Norte 0 -- -- 63
2019-02-15 12:00:00 12.8 5 Nordeste 13 Nordeste 0 -- -- 69
2019-02-15 11:00:00 10.6 5 Nordeste 12 Nordeste 0 -- -- 75
2019-02-15 10:00:00 5.7 0 Calma 4 Este 0 -- -- 97
2019-02-15 09:00:00 -0.4 0 Calma 0 Calma 0 -- -- 97
2019-02-15 08:00:00 -0.4 0 Calma 2 Oeste 0 -- -- 96
2019-02-15 07:00:00 0.1 0 Calma 4 Oeste 0 -- -- 95
2019-02-15 06:00:00 0.8 2 Oeste 5 Este 0 -- -- 90
2019-02-15 05:00:00 3.3 2 Este 8 Este 0 -- -- 90
2019-02-15 04:00:00 3.5 0 Calma 8 Sudeste 0 -- -- 89
2019-02-15 03:00:00 2.7 5 Sudeste 9 Sudeste 0 -- -- 93
2019-02-15 02:00:00 5.1 6 Sudeste 9 Sudeste 0 -- -- 85
2019-02-15 01:00:00 4.9 3 Este 9 Sudeste 0 -- -- 84
2019-02-15 00:00:00 4.9 3 Este 9 Sudeste 0 -- -- 86
2019-02-14 23:00:00 6.5 7 Sudeste 10 Este 0 -- -- 81
2019-02-14 22:00:00 7.3 3 Sudeste 8 Sudeste 0 -- -- 79
2019-02-14 21:00:00 8.1 3 Este 9 Sudeste 0 -- -- 76
2019-02-14 20:00:00 10 4 Sudeste 7 Sudeste 0 -- -- 68
2019-02-14 19:00:00 13.1 4 Sudeste 17 Sur 0 -- -- 60
2019-02-14 18:00:00 16 8 Sur 20 Sur 0 -- -- 50
2019-02-14 17:00:00 16.7 12 Sudeste 22 Sudeste 0 -- -- 45
2019-02-14 16:00:00 17.2 10 Sudeste 25 Sudeste 0 -- -- 42
2019-02-14 15:00:00 16.9 13 Sudeste 23 Sudeste 0 -- -- 41
2019-02-14 14:00:00 16.1 10 Sudeste 28 Sudeste 0 -- -- 45
2019-02-14 13:00:00 14.9 15 Sudeste 30 Este 0 -- -- 47
2019-02-14 12:00:00 13.1 18 Sudeste 27 Sudeste 0 -- -- 52
2019-02-14 11:00:00 11.1 14 Sudeste 21 Sudeste 0 -- -- 59
2019-02-14 10:00:00 8.9 9 Sudeste 16 Sudeste 0 -- -- 74
2019-02-14 09:00:00 4.5 6 Sudeste 9 Sudeste 0 -- -- 89
2019-02-14 08:00:00 3.9 5 Sudeste 10 Sudeste 0 -- -- 88
2019-02-14 07:00:00 2.6 0 Calma 9 Sudeste 0 -- -- 91
2019-02-14 06:00:00 3.2 2 Este 14 Sudeste 0 -- -- 89
2019-02-14 05:00:00 2.5 2 Este 12 Este 0 -- -- 90
2019-02-14 04:00:00 1.8 2 Este 4 Nordeste 0 -- -- 94
2019-02-14 03:00:00 1.7 0 Calma 2 Sudoeste 0 -- -- 93
2019-02-14 02:00:00 2 0 Calma 2 Oeste 0 -- -- 93
2019-02-14 01:00:00 2.6 0 Calma 2 Oeste 0 -- -- 89
2019-02-14 00:00:00 3.2 0 Calma 2 Sur 0 -- -- 86
2019-02-13 23:00:00 3.5 2 Oeste 3 Oeste 0 -- -- 87
2019-02-13 22:00:00 4.4 4 Oeste 6 Sudoeste 0 -- -- 84
2019-02-13 21:00:00 7.7 0 Calma 6 Norte 0 -- -- 69
2019-02-13 20:00:00 9.8 2 Oeste 6 Sudoeste 0 -- -- 61
2019-02-13 19:00:00 13.8 5 Sudeste 15 Sur 0 -- -- 44
2019-02-13 18:00:00 16.8 9 Sudeste 17 Sudeste 0 -- -- 45
2019-02-13 17:00:00 17.8 7 Sudeste 15 Sur 0 -- -- 49
2019-02-13 16:00:00 16.9 5 Nordeste 18 Nordeste 0 -- -- 57
2019-02-13 15:00:00 16.8 5 Nordeste 14 Nordeste 0 -- -- 61
2019-02-13 14:00:00 15 7 Nordeste 14 Nordeste 0 -- -- 65
2019-02-13 13:00:00 14.7 5 Este 11 Este 0 -- -- 65
2019-02-13 12:00:00 13 4 Este 8 Nordeste 0 -- -- 70
2019-02-13 11:00:00 10.7 3 Nordeste 8 Sudeste 0 -- -- 82
2019-02-13 10:00:00 6.1 0 Calma 3 Noroeste 0 -- -- 100
2019-02-13 09:00:00 1 0 Calma 0 Calma 0 -- -- 99
2019-02-13 08:00:00 0.3 0 Calma 5 Noroeste 0 -- -- 98
2019-02-13 07:00:00 0.6 0 Calma 3 Sudeste 0 -- -- 97
2019-02-13 06:00:00 1.8 3 Sudeste 4 Sudeste 0 -- -- 98
2019-02-13 05:00:00 1.5 0 Calma 3 Oeste 0 -- -- 97
2019-02-13 04:00:00 1.8 2 Oeste 4 Este 0 -- -- 94
2019-02-13 03:00:00 2.5 0 Calma 3 Sur 0 -- -- 95
2019-02-13 02:00:00 3.3 0 Calma 3 Noroeste 0 -- -- 94
2019-02-13 01:00:00 5.2 0 Calma 4 Sudeste 0 -- -- 92
2019-02-13 00:00:00 6 0 Calma 3 Sudeste 0 -- -- 89
2019-02-12 23:00:00 7.5 0 Calma 8 Sudeste 0 -- -- 86
2019-02-12 22:00:00 8.4 0 Calma 13 Sur 0 -- -- 80
2019-02-12 21:00:00 9.8 8 Sur 13 Sur 0 -- -- 80
2019-02-12 20:00:00 10.5 5 Sur 9 Sur 0 -- -- 77
2019-02-12 19:00:00 13 5 Sur 13 Sur 0 -- -- 67
2019-02-12 18:00:00 15.3 12 Sur 18 Sur 0 -- -- 55
2019-02-12 17:00:00 15.9 12 Sur 21 Sur 0 -- -- 55
2019-02-12 16:00:00 16.9 12 Sur 19 Sudeste 0 -- -- 51
2019-02-12 15:00:00 16.2 8 Sur 22 Sur 0 -- -- 54
2019-02-12 14:00:00 15.6 8 Sur 22 Sudeste 0 -- -- 56
2019-02-12 13:00:00 14.3 4 Este 10 Nordeste 0 -- -- 54
2019-02-12 12:00:00 11.8 4 Nordeste 8 Nordeste 0 -- -- 61
2019-02-12 11:00:00 9 2 Norte 9 Nordeste 0 -- -- 69
2019-02-12 10:00:00 6.2 3 Nordeste 8 Nordeste 0 -- -- 85
2019-02-12 09:00:00 1.9 0 Calma 6 Nordeste 0 -- -- 94
2019-02-12 08:00:00 1.2 2 Nordeste 6 Nordeste 0 -- -- 94
2019-02-12 07:00:00 2.1 2 Nordeste 6 Este 0 -- -- 98
2019-02-12 06:00:00 2.4 0 Calma 8 Nordeste 0 -- -- 97
2019-02-12 05:00:00 1.6 3 Este 5 Este 0 -- -- 97
2019-02-12 04:00:00 1.4 0 Calma 3 Nordeste 0 -- -- 94
2019-02-12 03:00:00 2.2 0 Calma 0 Calma 0 -- -- 94
2019-02-12 02:00:00 2.9 0 Calma 2 Sudeste 0 -- -- 93
2019-02-12 01:00:00 3.5 0 Calma 2 Oeste 0 -- -- 91
2019-02-12 00:00:00 4.1 0 Calma 3 Norte 0 -- -- 91
2019-02-11 23:00:00 4.9 2 Norte 9 Norte 0 -- -- 84
2019-02-11 22:00:00 5.6 0 Calma 6 Noroeste 0 -- -- 86
2019-02-11 21:00:00 5.6 5 Noroeste 12 Noroeste 0 -- -- 84
2019-02-11 20:00:00 7.6 0 Calma 7 Norte 0 -- -- 77
2019-02-11 19:00:00 11.2 6 Norte 8 Norte 0 -- -- 64
2019-02-11 18:00:00 14.1 6 Norte 12 Noroeste 0 -- -- 57
2019-02-11 17:00:00 14.7 8 Norte 13 Norte 0 -- -- 51
2019-02-11 16:00:00 15.1 5 Norte 15 Nordeste 0 -- -- 49
2019-02-11 15:00:00 14.4 4 Nordeste 13 Norte 0 -- -- 53
2019-02-11 14:00:00 13.9 4 Nordeste 12 Noroeste 0 -- -- 59
2019-02-11 13:00:00 12.5 3 Este 12 Nordeste 0 -- -- 67
2019-02-11 12:00:00 11 4 Norte 10 Sudoeste 0 -- -- 76
2019-02-11 11:00:00 10.1 6 Sudoeste 13 Sudoeste 0 -- -- 83
2019-02-11 10:00:00 8 4 Sur 9 Sur 0 -- -- 97
2019-02-11 09:00:00 6.8 4 Sudoeste 16 Sudoeste 0 -- -- 99
2019-02-11 08:00:00 7.5 9 Sudoeste 13 Sudoeste 0 -- -- 98
2019-02-11 07:00:00 7.6 3 Oeste 8 Oeste 0 -- -- 98
2019-02-11 06:00:00 8.1 8 Sudoeste 16 Oeste 0 -- -- 97
2019-02-11 05:00:00 8.4 5 Oeste 17 Oeste 0 -- -- 95
2019-02-11 04:00:00 10.2 8 Oeste 17 Oeste 0 -- -- 97
2019-02-11 03:00:00 10.2 11 Oeste 17 Sudoeste 0.2 -- -- 98
2019-02-11 02:00:00 10 9 Sudoeste 17 Sudoeste 0 -- -- 97
2019-02-11 01:00:00 10.1 9 Sudoeste 17 Sudoeste 0 -- -- 95
2019-02-11 00:00:00 10.6 6 Sudoeste 15 Sudoeste 0 -- -- 87
2019-02-10 23:00:00 10.6 4 Sudoeste 9 Sur 0 -- -- 84
2019-02-10 22:00:00 10.7 6 Sudoeste 14 Sudoeste 0 -- -- 82
2019-02-10 21:00:00 10.4 8 Oeste 13 Sudoeste 0 -- -- 83
2019-02-10 20:00:00 11.2 3 Sudoeste 11 Sudoeste 0 -- -- 81
2019-02-10 19:00:00 11.4 7 Oeste 21 Oeste 0 -- -- 80
2019-02-10 18:00:00 12.5 14 Oeste 23 Oeste 0 -- -- 72
2019-02-10 17:00:00 13.4 19 Oeste 29 Oeste 0 -- -- 66
2019-02-10 16:00:00 14.2 18 Oeste 27 Oeste 0 -- -- 65
2019-02-10 15:00:00 12.6 15 Oeste 27 Oeste 0 -- -- 74
2019-02-10 14:00:00 13.1 13 Oeste 20 Noroeste 0 -- -- 68
2019-02-10 13:00:00 12.1 9 Sudoeste 16 Sudoeste 0 -- -- 73
2019-02-10 12:00:00 9.4 9 Sudoeste 15 Sudoeste 0 -- -- 88
2019-02-10 11:00:00 6.5 6 Sur 13 Sur 0 -- -- 100
2019-02-10 10:00:00 4.5 4 Sur 9 Sur 0 -- -- 100
2019-02-10 09:00:00 2.9 4 Sur 8 Sur 0 -- -- 100
2019-02-10 08:00:00 2.9 3 Sur 6 Sur 0 -- -- 100
2019-02-10 07:00:00 3 2 Sur 9 Sur 0 -- -- 99
2019-02-10 06:00:00 4 5 Sur 9 Sur 0 -- -- 99
2019-02-10 05:00:00 3.7 3 Sur 6 Sur 0 -- -- 99
2019-02-10 04:00:00 2.6 3 Sudoeste 6 Sur 0 -- -- 99
2019-02-10 03:00:00 2.4 2 Sur 5 Sur 0 -- -- 98
2019-02-10 02:00:00 2.4 0 Calma 3 Sur 0 -- -- 97
2019-02-10 01:00:00 2.6 0 Calma 4 Sudoeste 0 -- -- 95
2019-02-10 00:00:00 3.5 0 Calma 6 Noroeste 0 -- -- 94
2019-02-09 23:00:00 4.1 0 Calma 4 Sudoeste 0 -- -- 94
2019-02-09 22:00:00 5.9 3 Sudoeste 12 Oeste 0 -- -- 87
2019-02-09 21:00:00 7.8 7 Noroeste 14 Sur 0 -- -- 80
2019-02-09 20:00:00 10.3 8 Sur 13 Sur 0 -- -- 74
2019-02-09 19:00:00 11.6 5 Sudoeste 12 Sur 0 -- -- 72
2019-02-09 18:00:00 14.7 6 Sur 14 Sur 0 -- -- 62
2019-02-09 17:00:00 15.7 9 Sudoeste 19 Sudoeste 0 -- -- 55
2019-02-09 16:00:00 16.3 8 Sudoeste 20 Sudoeste 0 -- -- 55
2019-02-09 15:00:00 15.6 9 Sur 21 Sur 0 -- -- 55
2019-02-09 14:00:00 14.5 10 Sudoeste 21 Sur 0 -- -- 64
2019-02-09 13:00:00 13.1 5 Sudoeste 11 Sur 0 -- -- 68
2019-02-09 12:00:00 11.6 4 Sur 8 Sudoeste 0 -- -- 71
2019-02-09 11:00:00 7.9 2 Sur 4 Sudeste 0 -- -- 97
2019-02-09 10:00:00 3.2 0 Calma 4 Sudoeste 0 -- -- 100
2019-02-09 09:00:00 -0.3 2 Sur 6 Sur 0 -- -- 100
2019-02-09 08:00:00 -0.5 4 Sur 6 Sur 0 -- -- 99
2019-02-09 07:00:00 -0.4 0 Calma 3 Sudeste 0 -- -- 99
2019-02-09 06:00:00 -0.3 0 Calma 3 Sudeste 0 -- -- 99
2019-02-09 05:00:00 -0.5 0 Calma 4 Sur 0 -- -- 98
2019-02-09 04:00:00 -0.1 0 Calma 2 Noroeste 0 -- -- 98
2019-02-09 03:00:00 0.2 0 Calma 3 Oeste 0 -- -- 97
2019-02-09 02:00:00 0.8 0 Calma 3 Sudeste 0 -- -- 94
2019-02-09 01:00:00 2 0 Calma 5 Oeste 0 -- -- 95
2019-02-09 00:00:00 2.9 2 Oeste 3 Oeste 0 -- -- 94
2019-02-08 23:00:00 4.8 0 Calma 4 Noroeste 0 -- -- 93
2019-02-08 22:00:00 5.7 4 Noroeste 13 Noroeste 0 -- -- 92
2019-02-08 21:00:00 6.8 6 Noroeste 8 Noroeste 0 -- -- 85
2019-02-08 20:00:00 7.9 6 Noroeste 9 Noroeste 0 -- -- 83
2019-02-08 19:00:00 10.8 8 Noroeste 16 Norte 0 -- -- 73
2019-02-08 18:00:00 16.3 7 Noroeste 9 Noroeste 0 -- -- 51
2019-02-08 17:00:00 16.8 8 Noroeste 17 Oeste 0 -- -- 47
2019-02-08 16:00:00 17.2 9 Oeste 23 Oeste 0 -- -- 42
2019-02-08 15:00:00 16.7 11 Oeste 21 Sudoeste 0 -- -- 40
2019-02-08 14:00:00 16.3 5 Sudoeste 13 Sudoeste 0 -- -- 45
2019-02-08 13:00:00 15.1 8 Sudoeste 13 Sudoeste 0 -- -- 46
2019-02-08 12:00:00 12.7 2 Sudoeste 6 Sudoeste 0 -- -- 52
2019-02-08 11:00:00 8.8 4 Sur 6 Sur 0 -- -- 66
2019-02-08 10:00:00 3.6 0 Calma 4 Sudeste 0 -- -- 89
2019-02-08 09:00:00 -2.1 0 Calma 2 Sur 0 -- -- 97
2019-02-08 08:00:00 -2.7 0 Calma 2 Sudeste 0 -- -- 91
2019-02-08 07:00:00 -2 0 Calma 3 Sudeste 0 -- -- 92
2019-02-08 06:00:00 -1.3 0 Calma 6 Oeste 0 -- -- 91
2019-02-08 05:00:00 0.1 4 Sudoeste 5 Sudoeste 0 -- -- 93
2019-02-08 04:00:00 -0.3 0 Calma 4 Sur 0 -- -- 92
2019-02-08 03:00:00 -0.2 0 Calma 4 Sudeste 0 -- -- 91
2019-02-08 02:00:00 -0.2 2 Oeste 3 Sudoeste 0 -- -- 89
2019-02-08 01:00:00 0.6 0 Calma 3 Sudoeste 0 -- -- 88
2019-02-08 00:00:00 1 0 Calma 3 Sudoeste 0 -- -- 89
2019-02-07 23:00:00 2.2 3 Sudeste 4 Sudeste 0 -- -- 87
2019-02-07 22:00:00 3.3 0 Calma 4 Oeste 0 -- -- 86
2019-02-07 21:00:00 5.1 0 Calma 2 Sur 0 -- -- 80
2019-02-07 20:00:00 7.1 0 Calma 6 Noroeste 0 -- -- 71
2019-02-07 19:00:00 10.7 3 Noroeste 11 Norte 0 -- -- 62
2019-02-07 18:00:00 15.4 9 Norte 12 Norte 0 -- -- 47
2019-02-07 17:00:00 16.7 6 Norte 13 Noroeste 0 -- -- 39
2019-02-07 16:00:00 16.9 8 Noroeste 14 Noroeste 0 -- -- 43
2019-02-07 15:00:00 16.6 6 Noroeste 14 Noroeste 0 -- -- 45
2019-02-07 14:00:00 15.5 8 Noroeste 15 Oeste 0 -- -- 40
2019-02-07 13:00:00 14.5 9 Oeste 16 Noroeste 0 -- -- 53
2019-02-07 12:00:00 13.3 8 Noroeste 13 Noroeste 0 -- -- 59
2019-02-07 11:00:00 10.9 3 Oeste 6 Noroeste 0 -- -- 79
2019-02-07 10:00:00 5 0 Calma 4 Oeste 0 -- -- 99
2019-02-07 09:00:00 0.2 0 Calma 2 Oeste 0 -- -- 97
2019-02-07 08:00:00 0.9 0 Calma 2 Sur 0 -- -- 97
2019-02-07 07:00:00 1.6 0 Calma 3 Sur 0 -- -- 97
2019-02-07 06:00:00 1.8 0 Calma 2 Sur 0 -- -- 97
2019-02-07 05:00:00 1.4 0 Calma 3 Sudoeste 0 -- -- 95
2019-02-07 04:00:00 1.6 2 Sudoeste 3 Sudoeste 0 -- -- 95
2019-02-07 03:00:00 1.9 0 Calma 4 Sur 0 -- -- 96
2019-02-07 02:00:00 2.4 0 Calma 3 Sur 0 -- -- 95
2019-02-07 01:00:00 3.1 0 Calma 4 Sur 0 -- -- 90
2019-02-07 00:00:00 4.1 0 Calma 3 Sur 0 -- -- 92
2019-02-06 23:00:00 4.8 0 Calma 3 Sur 0 -- -- 88
2019-02-06 22:00:00 7.3 0 Calma 2 Este 0 -- -- 81
2019-02-06 21:00:00 7.8 0 Calma 5 Noroeste 0 -- -- 81
2019-02-06 20:00:00 8.7 2 Noroeste 11 Noroeste 0 -- -- 73
2019-02-06 19:00:00 12.8 0 Calma 6 Oeste 0 -- -- 60
2019-02-06 18:00:00 16.6 3 Oeste 9 Noroeste 0 -- -- 49
2019-02-06 17:00:00 18.1 3 Noroeste 13 Noroeste 0 -- -- 42
2019-02-06 16:00:00 18.4 3 Norte 10 Sudoeste 0 -- -- 39
2019-02-06 15:00:00 18 3 Oeste 10 Sudoeste 0 -- -- 43
2019-02-06 14:00:00 16.7 5 Noroeste 10 Oeste 0 -- -- 47
2019-02-06 13:00:00 15.8 3 Noroeste 7 Norte 0 -- -- 54
2019-02-06 12:00:00 13.9 0 Calma 6 Este 0 -- -- 56
2019-02-06 11:00:00 10.1 0 Calma 3 Este 0 -- -- 78
2019-02-06 10:00:00 4.8 0 Calma 2 Sur 0 -- -- 94
2019-02-06 09:00:00 -0.2 0 Calma 3 Oeste 0 -- -- 95
2019-02-06 08:00:00 -0.4 0 Calma 3 Sur 0 -- -- 97
2019-02-06 07:00:00 -0.3 0 Calma 2 Oeste 0 -- -- 96
2019-02-06 06:00:00 0 0 Calma 3 Oeste 0 -- -- 96
2019-02-06 05:00:00 0.2 0 Calma 2 Sudoeste 0 -- -- 94
2019-02-06 04:00:00 0.5 0 Calma 2 Sudoeste 0 -- -- 94
2019-02-06 03:00:00 0.8 0 Calma 2 Oeste 0 -- -- 93
2019-02-06 02:00:00 0.9 0 Calma 2 Oeste 0 -- -- 94
2019-02-06 01:00:00 1.2 2 Oeste 3 Sudoeste 0 -- -- 92
2019-02-06 00:00:00 1.6 0 Calma 2 Sudeste 0 -- -- 90
2019-02-05 23:00:00 2.6 0 Calma 4 Oeste 0 -- -- 91
2019-02-05 22:00:00 4.2 0 Calma 8 Este 0 -- -- 85
2019-02-05 21:00:00 5 0 Calma 4 Oeste 0 -- -- 86
2019-02-05 20:00:00 7.5 2 Noroeste 3 Oeste 0 -- -- 75
2019-02-05 19:00:00 12.3 2 Norte 9 Norte 0 -- -- 61
2019-02-05 18:00:00 14.7 6 Nordeste 14 Nordeste 0 -- -- 48
2019-02-05 17:00:00 15.7 7 Nordeste 14 Nordeste 0 -- -- 46
2019-02-05 16:00:00 16.5 7 Nordeste 17 Nordeste 0 -- -- 44
2019-02-05 15:00:00 16.1 5 Nordeste 15 Nordeste 0 -- -- 48
2019-02-05 14:00:00 14.8 5 Nordeste 12 Este 0 -- -- 50
2019-02-05 13:00:00 13.1 5 Nordeste 12 Este 0 -- -- 53
2019-02-05 12:00:00 11.6 6 Nordeste 11 Nordeste 0 -- -- 55
2019-02-05 11:00:00 8.9 3 Este 7 Este 0 -- -- 68
2019-02-05 10:00:00 3.3 0 Calma 5 Este 0 -- -- 88
2019-02-05 09:00:00 -2.1 0 Calma 4 Este 0 -- -- 92
2019-02-05 08:00:00 -2 0 Calma 4 Norte 0 -- -- 93
2019-02-05 07:00:00 -2.2 0 Calma 4 Sudoeste 0 -- -- 93
2019-02-05 06:00:00 -2 0 Calma 0 Calma 0 -- -- 94
2019-02-05 05:00:00 -2 0 Calma 2 Este 0 -- -- 92
2019-02-05 04:00:00 -1.7 0 Calma 2 Nordeste 0 -- -- 91
2019-02-05 03:00:00 -1.5 0 Calma 3 Noroeste 0 -- -- 92
2019-02-05 02:00:00 -1.2 0 Calma 4 Este 0 -- -- 90
2019-02-05 01:00:00 0.1 0 Calma 5 Este 0 -- -- 87
2019-02-05 00:00:00 -0.1 0 Calma 2 Oeste 0 -- -- 90
2019-02-04 23:00:00 0.4 0 Calma 2 Oeste 0 -- -- 89
2019-02-04 22:00:00 1.6 0 Calma 3 Sudoeste 0 -- -- 85
2019-02-04 21:00:00 2.9 0 Calma 9 Norte 0 -- -- 78
2019-02-04 20:00:00 4.4 5 Norte 9 Norte 0 -- -- 72
2019-02-04 19:00:00 8.7 3 Norte 8 Nordeste 0 -- -- 49
2019-02-04 18:00:00 12.3 5 Nordeste 9 Norte 0 -- -- 41
2019-02-04 17:00:00 13.5 3 Nordeste 10 Norte 0 -- -- 36
2019-02-04 16:00:00 13.3 5 Nordeste 10 Norte 0 -- -- 34
2019-02-04 15:00:00 12.3 5 Nordeste 15 Nordeste 0 -- -- 36
2019-02-04 14:00:00 10.9 6 Nordeste 13 Nordeste 0 -- -- 42
2019-02-04 13:00:00 10 7 Nordeste 14 Nordeste 0 -- -- 49
2019-02-04 12:00:00 8.1 6 Nordeste 12 Nordeste 0 -- -- 56
2019-02-04 11:00:00 5.2 3 Norte 6 Nordeste 0 -- -- 70
2019-02-04 10:00:00 1.1 0 Calma 3 Sudeste 0 -- -- 91
2019-02-04 09:00:00 -4.4 0 Calma 2 Sudeste 0 -- -- 95
2019-02-04 08:00:00 -4.4 0 Calma 2 Este 0 -- -- 94
2019-02-04 07:00:00 -4.3 0 Calma 2 Oeste 0 -- -- 93
2019-02-04 06:00:00 -4.1 0 Calma 4 Oeste 0 -- -- 94
2019-02-04 05:00:00 -3.7 0 Calma 4 Oeste 0 -- -- 93
2019-02-04 04:00:00 -3.5 0 Calma 3 Nordeste 0 -- -- 91
2019-02-04 03:00:00 -3 0 Calma 3 Sudoeste 0 -- -- 92
2019-02-04 02:00:00 -2.2 0 Calma 2 Oeste 0 -- -- 90
2019-02-04 01:00:00 -1.8 2 Sudoeste 4 Sudoeste 0 -- -- 87
2019-02-04 00:00:00 -0.9 0 Calma 6 Noroeste 0 -- -- 85
2019-02-03 23:00:00 -0.2 0 Calma 7 Sudoeste 0 -- -- 83
2019-02-03 22:00:00 0.5 3 Noroeste 13 Noroeste 0 -- -- 80
2019-02-03 21:00:00 1 11 Noroeste 13 Noroeste 0 -- -- 80
2019-02-03 20:00:00 1.5 9 Noroeste -- -- 0 -- -- 78
2019-02-03 19:00:00 4.5 6 Norte 16 Norte 0 -- -- 64
2019-02-03 18:00:00 8.2 11 Norte 21 Norte 0 -- -- 49
2019-02-03 17:00:00 9.4 10 Norte 22 Norte 0 -- -- 44
2019-02-03 16:00:00 9.7 13 Norte 22 Nordeste 0 -- -- 46
2019-02-03 15:00:00 9.2 11 Nordeste 21 Nordeste 0 -- -- 47
2019-02-03 14:00:00 8.9 5 Norte 17 Norte 0 -- -- 51
2019-02-03 13:00:00 7.8 4 Nordeste 15 Nordeste 0 -- -- 57
2019-02-03 12:00:00 6 7 Nordeste 14 Nordeste 0 -- -- 68
2019-02-03 11:00:00 4.1 7 Norte 12 Norte 0 -- -- 78
2019-02-03 10:00:00 1.1 5 Noroeste 8 Noroeste 0 -- -- 91
2019-02-03 09:00:00 -2.8 0 Calma 4 Oeste 0 -- -- 95
2019-02-03 08:00:00 -2.7 0 Calma 5 Sur 0 -- -- 93
2019-02-03 07:00:00 -2.2 3 Sudoeste 9 Noroeste 0 -- -- 89
2019-02-03 06:00:00 -0.5 3 Oeste 9 Oeste 0 -- -- 86
2019-02-03 05:00:00 -1 2 Nordeste 9 Noroeste 0 -- -- 88
2019-02-03 04:00:00 -0.5 6 Noroeste 14 Noroeste 0 -- -- 84
2019-02-03 03:00:00 0.2 8 Noroeste 13 Noroeste 0 -- -- 81
2019-02-03 02:00:00 0 12 Noroeste 18 Noroeste 0 -- -- 83
2019-02-03 01:00:00 -0.2 8 Noroeste 17 Noroeste 0 -- -- 82
2019-02-03 00:00:00 1.1 12 Noroeste 26 Noroeste 0 -- -- 77
2019-02-02 23:00:00 2.2 18 Noroeste 23 Oeste 0 -- -- 72
2019-02-02 22:00:00 0.6 12 Noroeste 14 Oeste 0 -- -- 82
2019-02-02 21:00:00 2.1 8 Oeste 20 Noroeste 0 -- -- 74
2019-02-02 20:00:00 3.9 14 Noroeste 25 Noroeste 0 -- -- 65
2019-02-02 19:00:00 5.4 19 Noroeste 40 Noroeste 0 -- -- 62
2019-02-02 18:00:00 7.7 24 Noroeste 41 Noroeste 0 -- -- 57
2019-02-02 17:00:00 8.4 29 Noroeste 44 Noroeste 0 -- -- 55
2019-02-02 16:00:00 8.4 28 Noroeste 49 Noroeste 0 -- -- 55
2019-02-02 15:00:00 8.5 32 Noroeste 52 Noroeste 0 -- -- 57
2019-02-02 14:00:00 8 35 Noroeste 57 Noroeste 0 -- -- 63
2019-02-02 13:00:00 7 38 Noroeste 55 Noroeste 0 -- -- 69
2019-02-02 12:00:00 6.2 32 Noroeste 49 Noroeste 0 -- -- 67
2019-02-02 11:00:00 5.4 34 Noroeste 47 Noroeste 0 -- -- 74
2019-02-02 10:00:00 4.2 26 Noroeste 39 Oeste 0 -- -- 80
2019-02-02 09:00:00 3 19 Oeste 41 Oeste 0 -- -- 88
2019-02-02 08:00:00 3.2 22 Oeste 38 Oeste 0 -- -- 90
2019-02-02 07:00:00 3.8 18 Noroeste 39 Oeste 0 -- -- 88
2019-02-02 06:00:00 4.6 22 Noroeste 37 Noroeste 0 -- -- 89
2019-02-02 05:00:00 4.5 23 Oeste 40 Oeste 0 -- -- 90
2019-02-02 04:00:00 5 33 Oeste 46 Oeste 0 -- -- 88
2019-02-02 03:00:00 5.2 27 Oeste 40 Oeste 0 -- -- 90
2019-02-02 02:00:00 5.1 31 Oeste 42 Oeste 0 -- -- 89
2019-02-02 01:00:00 4.8 24 Oeste 42 Oeste 0 -- -- 90
2019-02-02 00:00:00 4.3 22 Oeste 37 Oeste 0 -- -- 91
2019-02-01 23:00:00 4.5 31 Oeste 42 Oeste 0 -- -- 88
2019-02-01 22:00:00 5 28 Oeste 58 Oeste 0 -- -- 85
2019-02-01 21:00:00 5.1 36 Oeste 53 Oeste 0 -- -- 82
2019-02-01 20:00:00 5.6 30 Oeste 48 Oeste 0 -- -- 83
2019-02-01 19:00:00 6.5 30 Oeste 46 Oeste 0 -- -- 81
2019-02-01 18:00:00 6.7 28 Oeste 62 Oeste 0.4 -- -- 89
2019-02-01 17:00:00 6.2 43 Oeste 80 Sudoeste 1.2 -- -- 89
2019-02-01 16:00:00 8.4 41 Oeste 65 Sudoeste 0.2 -- -- 83
2019-02-01 15:00:00 10 46 Oeste 70 Oeste 0 -- -- 70
2019-02-01 14:00:00 10.6 41 Oeste 64 Sudoeste 0 -- -- 70
2019-02-01 13:00:00 9.7 37 Oeste 55 Oeste 0 -- -- 71
2019-02-01 12:00:00 8.6 36 Oeste 54 Oeste 0 -- -- 74
2019-02-01 11:00:00 8.1 34 Oeste 50 Oeste 0 -- -- 81
2019-02-01 10:00:00 6.9 33 Oeste 52 Oeste 0.2 -- -- 88
2019-02-01 09:00:00 7 19 Oeste 40 Oeste 0 -- -- 90
2019-02-01 08:00:00 7.4 21 Oeste 43 Sudoeste 0 -- -- 92
2019-02-01 07:00:00 7.9 25 Oeste 48 Oeste 0.4 -- -- 94
2019-02-01 06:00:00 9.1 29 Oeste 42 Noroeste 0.8 -- -- 95
2019-02-01 05:00:00 10.1 27 Oeste 53 Oeste 2 -- -- 95
2019-02-01 04:00:00 10.3 36 Oeste 64 Oeste 4.4 -- -- 91
2019-02-01 03:00:00 10.5 19 Oeste 32 Sudoeste 4.8 -- -- 97
2019-02-01 02:00:00 10.3 21 Sudoeste 39 Sudoeste 2.4 -- -- 96
2019-02-01 01:00:00 10.4 24 Sudoeste 41 Sudoeste 0.8 -- -- 96
2019-02-01 00:00:00 10.5 20 Sudoeste 38 Sudoeste 0 -- -- 94
2019-01-31 23:00:00 10.9 23 Sudoeste 41 Sudoeste 0 -- -- 89
2019-01-31 22:00:00 10.9 20 Sudoeste 41 Sudoeste 0 -- -- 93
2019-01-31 21:00:00 11.2 23 Sudoeste 36 Sudoeste 0 -- -- 89
2019-01-31 20:00:00 11.2 18 Sudoeste 33 Sudoeste 0 -- -- 84
2019-01-31 19:00:00 11.1 23 Sudoeste 41 Oeste 0.2 -- -- 85
2019-01-31 18:00:00 12.3 22 Sudoeste 39 Sudoeste 0 -- -- 84
2019-01-31 17:00:00 12.6 18 Sudoeste 41 Sudoeste 0 -- -- 80
2019-01-31 16:00:00 12.6 30 Sudoeste 53 Sudoeste 0 -- -- 81
2019-01-31 15:00:00 13 32 Sudoeste 50 Sudoeste 0 -- -- 80
2019-01-31 14:00:00 13 35 Sudoeste 56 Sudoeste 0.2 -- -- 79
2019-01-31 13:00:00 12.2 32 Oeste 48 Oeste 0 -- -- 85
2019-01-31 12:00:00 11.7 29 Sudoeste 48 Oeste 0 -- -- 89
2019-01-31 11:00:00 10.6 28 Oeste 45 Sudoeste 0 -- -- 93
2019-01-31 10:00:00 9.9 26 Sudoeste 41 Oeste 0 -- -- 94
2019-01-31 09:00:00 10.1 29 Oeste 46 Oeste 0 -- -- 95
2019-01-31 08:00:00 10 20 Sudoeste 40 Oeste 0 -- -- 96
2019-01-31 07:00:00 10.1 21 Sudoeste 34 Oeste 0 -- -- 96
2019-01-31 06:00:00 10 24 Oeste 46 Sudoeste 0 -- -- 96
2019-01-31 05:00:00 9.9 30 Sudoeste 46 Sudoeste 0 -- -- 97
2019-01-31 04:00:00 9.7 29 Sudoeste 43 Sudoeste 0.2 -- -- 97
2019-01-31 03:00:00 9.4 22 Sudoeste 41 Sudoeste 0.2 -- -- 96
2019-01-31 02:00:00 9 22 Sudoeste 31 Sudoeste 0.2 -- -- 95
2019-01-31 01:00:00 8.6 19 Sudoeste 28 Sudoeste 0 -- -- 97
2019-01-31 00:00:00 8.8 15 Sudoeste 29 Sudoeste 0 -- -- 95
2019-01-30 23:00:00 8.9 24 Sudoeste 35 Sudoeste 0 -- -- 94
2019-01-30 22:00:00 8.5 16 Sudoeste 26 Sudoeste 0.2 -- -- 97
2019-01-30 21:00:00 8 11 Sudoeste 22 Sudoeste 0.4 -- -- 97
2019-01-30 20:00:00 8 9 Sudoeste 23 Sudoeste 0.4 -- -- 96
2019-01-30 19:00:00 8 14 Sudoeste 28 Sudoeste 0.6 -- -- 95
2019-01-30 18:00:00 8.6 20 Sudoeste 28 Sudoeste 0 -- -- 89
2019-01-30 17:00:00 9.8 15 Oeste 26 Oeste 0 -- -- 77
2019-01-30 16:00:00 10.6 18 Oeste 28 Oeste 0 -- -- 67
2019-01-30 15:00:00 10.6 18 Oeste 31 Oeste 0 -- -- 67
2019-01-30 14:00:00 10 18 Oeste 27 Oeste 0 -- -- 69
2019-01-30 13:00:00 10 18 Oeste 30 Oeste 0 -- -- 69
2019-01-30 12:00:00 8.6 19 Oeste 28 Oeste 0 -- -- 77
2019-01-30 11:00:00 7.4 17 Oeste 30 Oeste 0 -- -- 85
2019-01-30 10:00:00 6.1 10 Noroeste 21 Oeste 0 -- -- 89
2019-01-30 09:00:00 5.4 11 Noroeste 25 Oeste 0 -- -- 90
2019-01-30 08:00:00 5.6 16 Noroeste 23 Oeste 0 -- -- 90
2019-01-30 07:00:00 5.3 15 Oeste 26 Oeste 0 -- -- 92
2019-01-30 06:00:00 4.9 6 Oeste 23 Oeste 0 -- -- 91
2019-01-30 05:00:00 6 15 Oeste 33 Oeste 0 -- -- 86
2019-01-30 04:00:00 6.5 21 Oeste 42 Oeste 0 -- -- 87
2019-01-30 03:00:00 7.2 30 Oeste 48 Oeste 0 -- -- 83
2019-01-30 02:00:00 8.3 16 Oeste 26 Oeste 0 -- -- 93
2019-01-30 01:00:00 8.3 14 Oeste 32 Oeste 0 -- -- 93
2019-01-30 00:00:00 8.3 22 Oeste 35 Oeste 0 -- -- 95
2019-01-29 23:00:00 8.4 24 Oeste 36 Oeste 0 -- -- 93
2019-01-29 22:00:00 8.7 24 Oeste 32 Oeste 0 -- -- 87
2019-01-29 21:00:00 8.9 22 Oeste 37 Oeste 0 -- -- 87
2019-01-29 20:00:00 8.8 25 Oeste 41 Oeste 0 -- -- 87
2019-01-29 19:00:00 9.7 30 Oeste 45 Oeste 0 -- -- 81
2019-01-29 18:00:00 10.1 21 Oeste 40 Oeste 0 -- -- 80
2019-01-29 17:00:00 10.3 23 Oeste 37 Oeste 0 -- -- 79
2019-01-29 16:00:00 10.2 27 Oeste 42 Noroeste 0 -- -- 81
2019-01-29 15:00:00 9.8 24 Oeste 40 Oeste 0 -- -- 85
2019-01-29 14:00:00 10.1 23 Oeste 33 Oeste 0 -- -- 81
2019-01-29 13:00:00 8.8 21 Oeste 43 Oeste 0 -- -- 91
2019-01-29 12:00:00 9.4 22 Oeste 33 Oeste 0 -- -- 83
2019-01-29 11:00:00 8.4 22 Oeste 33 Oeste 0 -- -- 85
2019-01-29 10:00:00 6.7 15 Oeste 22 Oeste 0 -- -- 91
2019-01-29 09:00:00 4.3 10 Oeste 15 Oeste 0 -- -- 97
2019-01-29 08:00:00 4.2 6 Oeste 19 Oeste 0 -- -- 95
2019-01-29 07:00:00 4.6 7 Noroeste 19 Noroeste 0 -- -- 96
2019-01-29 06:00:00 5.4 12 Noroeste 24 Noroeste 0 -- -- 94
2019-01-29 05:00:00 6.2 12 Noroeste 22 Oeste 0 -- -- 94
2019-01-29 04:00:00 6.8 15 Oeste 27 Oeste 0 -- -- 93
2019-01-29 03:00:00 6.5 13 Oeste 22 Oeste 0 -- -- 94
2019-01-29 02:00:00 7.5 15 Oeste 22 Oeste 0 -- -- 94
2019-01-29 01:00:00 6.9 10 Oeste 19 Oeste 0 -- -- 98
2019-01-29 00:00:00 5.6 10 Oeste 17 Oeste 0 -- -- 95
2019-01-28 23:00:00 6.4 9 Oeste 21 Noroeste 0 -- -- 94
2019-01-28 22:00:00 7 14 Noroeste 24 Noroeste 0 -- -- 91
2019-01-28 21:00:00 7.5 7 Noroeste 24 Oeste 0 -- -- 86
2019-01-28 20:00:00 9 15 Noroeste 24 Oeste 0 -- -- 80
2019-01-28 19:00:00 9.7 16 Noroeste 34 Oeste 0 -- -- 78
2019-01-28 18:00:00 10.3 17 Oeste 36 Noroeste 0 -- -- 78
2019-01-28 17:00:00 10.9 25 Oeste 40 Noroeste 0 -- -- 74
2019-01-28 16:00:00 12.1 26 Noroeste 42 Oeste 0 -- -- 68
2019-01-28 15:00:00 11.4 26 Noroeste 44 Oeste 0 -- -- 66
2019-01-28 14:00:00 11.4 28 Noroeste 48 Oeste 0 -- -- 66
2019-01-28 13:00:00 10.9 26 Oeste 39 Oeste 0 -- -- 66
2019-01-28 12:00:00 9.1 18 Oeste 33 Oeste 0 -- -- 72
2019-01-28 11:00:00 7.3 11 Oeste 15 Oeste 0 -- -- 77
2019-01-28 10:00:00 3.3 4 Sur 12 Sur 0 -- -- 89
2019-01-28 09:00:00 0.5 0 Calma 13 Noroeste 0 -- -- 91
2019-01-28 08:00:00 0.9 0 Calma 15 Noroeste 0 -- -- 90
2019-01-28 07:00:00 2.1 10 Noroeste 22 Noroeste 0 -- -- 89
2019-01-28 06:00:00 2.3 14 Noroeste 22 Noroeste 0 -- -- 89
2019-01-28 05:00:00 1.3 10 Oeste 17 Noroeste 0 -- -- 90
2019-01-28 04:00:00 1.7 3 Noroeste 13 Noroeste 0 -- -- 89
2019-01-28 03:00:00 1.8 2 Oeste 12 Noroeste 0 -- -- 87
2019-01-28 02:00:00 1.2 5 Sudoeste 13 Oeste 0 -- -- 86
2019-01-28 01:00:00 2.2 0 Calma 6 Noroeste 0 -- -- 82
2019-01-28 00:00:00 2.3 0 Calma 11 Noroeste 0 -- -- 81
2019-01-27 23:00:00 2.9 0 Calma 8 Noroeste 0 -- -- 79
2019-01-27 22:00:00 3.9 4 Oeste 18 Noroeste 0 -- -- 77
2019-01-27 21:00:00 5.6 16 Noroeste 22 Noroeste 0 -- -- 70
2019-01-27 20:00:00 6.1 12 Noroeste 21 Norte 0 -- -- 68
2019-01-27 19:00:00 7.1 14 Noroeste 31 Noroeste 0 -- -- 64
2019-01-27 18:00:00 9.9 23 Noroeste 42 Noroeste 0 -- -- 55
2019-01-27 17:00:00 10.9 28 Noroeste 43 Noroeste 0 -- -- 52
2019-01-27 16:00:00 11.3 27 Noroeste 43 Noroeste 0 -- -- 56
2019-01-27 15:00:00 11.6 28 Noroeste 41 Noroeste 0 -- -- 65
2019-01-27 14:00:00 9.8 21 Noroeste 41 Noroeste 0 -- -- 73
2019-01-27 13:00:00 9.4 21 Noroeste 28 Noroeste 0 -- -- 75
2019-01-27 12:00:00 9.1 17 Oeste 26 Oeste 0 -- -- 79
2019-01-27 11:00:00 6.8 15 Oeste 22 Oeste 0 -- -- 90
2019-01-27 10:00:00 3.7 3 Norte 6 Sudoeste 0 -- -- 98
2019-01-27 09:00:00 1.3 5 Oeste 15 Oeste 0 -- -- 97
2019-01-27 08:00:00 2.5 13 Sudoeste 17 Sudoeste 0 -- -- 97
2019-01-27 07:00:00 3.2 3 Sudoeste 14 Oeste 0 -- -- 96
2019-01-27 06:00:00 4.3 8 Sudoeste 16 Sudoeste 0 -- -- 93
2019-01-27 05:00:00 3.8 13 Sudoeste 16 Sudoeste 0 -- -- 96
2019-01-27 04:00:00 4.5 4 Oeste 9 Sudoeste 0 -- -- 95
2019-01-27 03:00:00 4.1 5 Oeste 9 Sudoeste 0 -- -- 90
2019-01-27 02:00:00 4.5 4 Sur 6 Sur 0 -- -- 87
2019-01-27 01:00:00 5.3 2 Sur 6 Sur 0 -- -- 81
2019-01-27 00:00:00 3.4 2 Sur 4 Sur 0 -- -- 87
2019-01-26 23:00:00 4 0 Calma 3 Sur 0 -- -- 81
2019-01-26 22:00:00 4.9 3 Sudoeste 5 Sudoeste 0 -- -- 79
2019-01-26 21:00:00 4.8 0 Calma 3 Oeste 0 -- -- 81
2019-01-26 20:00:00 7.4 0 Calma 3 Oeste 0 -- -- 71
2019-01-26 19:00:00 11.8 2 Sudoeste 7 Oeste 0 -- -- 58
2019-01-26 18:00:00 17 4 Oeste 10 Norte 0 -- -- 46
2019-01-26 17:00:00 17.5 4 Noroeste 8 Oeste 0 -- -- 42
2019-01-26 16:00:00 17.6 4 Noroeste 9 Noroeste 0 -- -- 41
2019-01-26 15:00:00 16.8 4 Oeste 11 Oeste 0 -- -- 43
2019-01-26 14:00:00 15.5 2 Sudeste 7 Sudeste 0 -- -- 46
2019-01-26 13:00:00 14.4 3 Este 6 Este 0 -- -- 50
2019-01-26 12:00:00 11.3 2 Este 6 Este 0 -- -- 62
2019-01-26 11:00:00 8.2 0 Calma 5 Nordeste 0 -- -- 86
2019-01-26 10:00:00 3.2 0 Calma 4 Noroeste 0 -- -- 100
2019-01-26 09:00:00 -1.3 0 Calma 4 Norte 0 -- -- 99
2019-01-26 08:00:00 -0.6 0 Calma 5 Oeste 0 -- -- 99
2019-01-26 07:00:00 -0.5 0 Calma 3 Sudoeste 0 -- -- 97
2019-01-26 06:00:00 0.5 2 Oeste 4 Oeste 0 -- -- 97
2019-01-26 05:00:00 1.4 0 Calma 4 Sudeste 0 -- -- 98
2019-01-26 04:00:00 1.5 2 Sudeste 6 Nordeste 0 -- -- 98
2019-01-26 03:00:00 1.1 0 Calma 5 Este 0 -- -- 96
2019-01-26 02:00:00 2.1 0 Calma 2 Este 0 -- -- 94
2019-01-26 01:00:00 2.8 0 Calma 5 Oeste 0 -- -- 94
2019-01-26 00:00:00 2.7 4 Oeste 5 Oeste 0 -- -- 90
2019-01-25 23:00:00 5.2 2 Este 5 Sudeste 0 -- -- 85
2019-01-25 22:00:00 6.5 2 Nordeste 9 Noroeste 0 -- -- 86
2019-01-25 21:00:00 6.3 2 Sudoeste 6 Sudoeste 0 -- -- 85
2019-01-25 20:00:00 7.8 3 Sudoeste 6 Sudoeste 0 -- -- 80
2019-01-25 19:00:00 10 10 Noroeste 12 Norte 0 -- -- 71
2019-01-25 18:00:00 15.3 6 Norte 13 Norte 0 -- -- 59
2019-01-25 17:00:00 16.4 9 Norte 17 Norte 0 -- -- 52
2019-01-25 16:00:00 16.4 10 Norte 17 Norte 0 -- -- 49
2019-01-25 15:00:00 15.9 8 Nordeste 17 Nordeste 0 -- -- 53
2019-01-25 14:00:00 14.9 7 Nordeste 20 Norte 0 -- -- 56
2019-01-25 13:00:00 13.9 6 Nordeste 15 Este 0 -- -- 64
2019-01-25 12:00:00 13 6 Nordeste 16 Norte 0 -- -- 68
2019-01-25 11:00:00 10.6 2 Norte 4 Norte 0 -- -- 89
2019-01-25 10:00:00 5.7 0 Calma 6 Noroeste 0 -- -- 100
2019-01-25 09:00:00 0.2 2 Oeste 4 Sudeste 0 -- -- 98
2019-01-25 08:00:00 0.7 0 Calma 3 Oeste 0 -- -- 98
2019-01-25 07:00:00 1.4 0 Calma 4 Nordeste 0 -- -- 98
2019-01-25 06:00:00 2 0 Calma 4 Oeste 0 -- -- 97
2019-01-25 05:00:00 2.6 2 Sudeste 9 Este 0 -- -- 97
2019-01-25 04:00:00 3 0 Calma 4 Sur 0 -- -- 96
2019-01-25 03:00:00 3.6 0 Calma 5 Sudoeste 0 -- -- 95
2019-01-25 02:00:00 5.3 0 Calma 4 Este 0 -- -- 89
2019-01-25 01:00:00 6.3 0 Calma 6 Sudeste 0 -- -- 91
2019-01-25 00:00:00 7 2 Oeste 15 Noroeste 0 -- -- 91
2019-01-24 23:00:00 5.5 11 Noroeste 13 Noroeste 0 -- -- 93
2019-01-24 22:00:00 6.7 4 Norte 9 Noroeste 0 -- -- 90
2019-01-24 21:00:00 6.8 4 Oeste 5 Oeste 0 -- -- 87
2019-01-24 20:00:00 9.4 3 Oeste 6 Oeste 0 -- -- 82
2019-01-24 19:00:00 11.6 7 Oeste 12 Noroeste 0 -- -- 76
2019-01-24 18:00:00 14.7 8 Noroeste 12 Oeste 0 -- -- 67
2019-01-24 17:00:00 15.5 13 Oeste 20 Oeste 0 -- -- 66
2019-01-24 16:00:00 15.3 12 Noroeste 22 Noroeste 0 -- -- 68
2019-01-24 15:00:00 15 15 Noroeste 24 Noroeste 0 -- -- 67
2019-01-24 14:00:00 14.2 17 Noroeste 37 Noroeste 0 -- -- 71
2019-01-24 13:00:00 12.8 27 Noroeste 36 Noroeste 0 -- -- 75
2019-01-24 12:00:00 11.8 27 Noroeste 38 Noroeste 0 -- -- 79
2019-01-24 11:00:00 10 24 Noroeste 35 Norte 0 -- -- 86
2019-01-24 10:00:00 8.3 15 Noroeste 25 Noroeste 0 -- -- 91
2019-01-24 09:00:00 6.6 4 Noroeste 10 Noroeste 0 -- -- 94
2019-01-24 08:00:00 7 12 Noroeste 22 Oeste 0 -- -- 93
2019-01-24 07:00:00 7.4 19 Noroeste 30 Noroeste 0 -- -- 94
2019-01-24 06:00:00 7.6 17 Noroeste 35 Oeste 0 -- -- 92
2019-01-24 05:00:00 7.7 20 Oeste 38 Noroeste 0 -- -- 92
2019-01-24 04:00:00 8.2 31 Noroeste 43 Oeste 0 -- -- 91
2019-01-24 03:00:00 8.3 15 Oeste 23 Oeste 0 -- -- 91
2019-01-24 02:00:00 8.3 15 Noroeste 27 Oeste 0 -- -- 92
2019-01-24 01:00:00 8.9 10 Oeste 31 Oeste 0 -- -- 90
2019-01-24 00:00:00 8.9 20 Oeste 29 Noroeste 0 -- -- 91